Time;durP1;ratioP1;P1;durP2;ratioP2;P2;SDS_P1;SDS_P2;PMS_P1;PMS_P2;Temp;Humidity;BMP_temperature;BMP_pressure;BME280_temperature;BME280_humidity;BME280_pressure;Samples;Min_cycle;Max_cycle;Signal;HPM_P1;HPM_P2
2023/08/22 00:01:39;;;;;;;6.35;2.58;;;24.40;53.80;;;;;;5022724;28;20049;-57
2023/08/22 00:04:06;;;;;;;4.35;2.30;;;24.40;53.80;;;;;;5022712;28;20050;-58
2023/08/22 00:06:33;;;;;;;6.38;2.30;;;24.40;53.90;;;;;;5022731;28;20050;-57
2023/08/22 00:09:04;;;;;;;3.70;2.30;;;24.30;53.90;;;;;;5024645;28;20057;-58
2023/08/22 00:11:33;;;;;;;3.90;2.80;;;24.30;53.90;;;;;;5022544;28;20060;-53
2023/08/22 00:14:00;;;;;;;3.83;2.80;;;24.30;53.80;;;;;;5022999;28;20049;-59
2023/08/22 00:16:27;;;;;;;5.88;3.13;;;24.30;53.90;;;;;;5024235;28;20072;-54
2023/08/22 00:18:55;;;;;;;7.80;2.42;;;24.30;53.90;;;;;;5024302;28;20056;-58
2023/08/22 00:21:22;;;;;;;5.15;2.90;;;24.20;54.00;;;;;;5021938;28;20057;-58
2023/08/22 00:23:50;;;;;;;5.05;3.00;;;24.20;54.00;;;;;;5023139;28;20053;-55
2023/08/22 00:26:17;;;;;;;4.40;2.58;;;24.20;54.10;;;;;;5023266;28;20049;-58
2023/08/22 00:28:45;;;;;;;6.50;2.50;;;24.20;54.20;;;;;;5022274;28;20049;-57
2023/08/22 00:31:13;;;;;;;5.53;2.35;;;24.20;54.20;;;;;;5022609;28;20053;-57
2023/08/22 00:33:40;;;;;;;12.52;3.20;;;24.10;54.20;;;;;;5023061;28;20424;-59
2023/08/22 00:36:07;;;;;;;5.25;2.78;;;24.10;54.20;;;;;;5022418;28;20052;-56
2023/08/22 00:38:35;;;;;;;13.27;3.47;;;24.10;54.20;;;;;;5022755;28;20057;-55
2023/08/22 00:41:02;;;;;;;7.63;3.97;;;24.10;54.30;;;;;;5023137;28;20054;-60
2023/08/22 00:43:29;;;;;;;8.15;3.45;;;24.00;54.60;;;;;;5021792;28;20060;-58
2023/08/22 00:45:58;;;;;;;13.68;4.53;;;24.00;54.60;;;;;;5022776;28;20057;-59
2023/08/22 00:48:25;;;;;;;11.52;4.07;;;23.80;54.60;;;;;;5022602;28;20053;-57
2023/08/22 00:50:53;;;;;;;9.18;4.18;;;23.80;54.70;;;;;;5021790;28;20061;-56
2023/08/22 00:53:20;;;;;;;6.60;3.53;;;23.70;54.80;;;;;;5023603;28;20065;-56
2023/08/22 00:55:47;;;;;;;7.78;3.22;;;23.70;55.00;;;;;;5021840;28;20049;-59
2023/08/22 00:58:15;;;;;;;5.70;2.50;;;23.70;55.10;;;;;;5022612;28;20074;-59
2023/08/22 01:00:42;;;;;;;6.43;3.15;;;23.60;55.20;;;;;;5023589;28;20417;-57
2023/08/22 01:03:11;;;;;;;3.80;2.80;;;23.60;55.30;;;;;;5045902;23;20049;-69
2023/08/22 01:05:43;;;;;;;6.47;2.83;;;23.60;55.40;;;;;;5021150;28;20045;-66
2023/08/22 01:08:16;;;;;;;4.97;3.17;;;23.60;55.50;;;;;;5022032;28;20512;-67
2023/08/22 01:10:48;;;;;;;6.63;3.13;;;23.60;55.50;;;;;;5023599;28;20057;-67
2023/08/22 01:13:20;;;;;;;5.75;2.72;;;23.60;55.50;;;;;;5022212;28;20065;-68
2023/08/22 01:15:50;;;;;;;6.03;2.88;;;23.60;55.50;;;;;;5022744;28;20484;-68
2023/08/22 01:18:20;;;;;;;4.25;2.50;;;23.60;55.50;;;;;;5022237;28;20054;-68
2023/08/22 01:20:47;;;;;;;4.53;2.90;;;23.60;55.50;;;;;;5021340;28;20053;-65
2023/08/22 01:23:15;;;;;;;5.57;2.72;;;23.50;55.40;;;;;;5021862;28;20057;-66
2023/08/22 01:25:43;;;;;;;7.47;3.13;;;23.50;55.30;;;;;;5022394;28;20057;-68
2023/08/22 01:28:15;;;;;;;5.55;2.90;;;23.50;55.30;;;;;;5020733;28;20068;-66
2023/08/22 01:30:48;;;;;;;5.93;2.80;;;23.50;55.30;;;;;;5020710;28;20056;-68
2023/08/22 01:33:23;;;;;;;5.15;2.85;;;23.50;55.40;;;;;;5022936;28;20076;-67
2023/08/22 01:35:53;;;;;;;7.55;2.97;;;23.50;55.50;;;;;;5021504;28;20057;-67
2023/08/22 01:38:24;;;;;;;6.18;3.35;;;23.50;55.50;;;;;;5021663;28;20053;-68
2023/08/22 01:40:52;;;;;;;6.15;3.28;;;23.50;55.60;;;;;;5021666;28;20079;-65
2023/08/22 01:43:21;;;;;;;5.78;3.30;;;23.50;55.70;;;;;;5021024;28;20409;-67
2023/08/22 01:45:48;;;;;;;4.88;3.30;;;23.40;55.70;;;;;;5023100;28;20053;-69
2023/08/22 01:48:16;;;;;;;9.25;3.58;;;23.40;55.70;;;;;;5020436;28;20058;-64
2023/08/22 01:50:43;;;;;;;6.95;3.33;;;23.40;55.80;;;;;;5021798;28;20042;-65
2023/08/22 01:53:10;;;;;;;4.38;2.85;;;23.40;55.80;;;;;;5022078;28;20056;-68
2023/08/22 01:55:39;;;;;;;4.65;2.85;;;23.40;55.90;;;;;;5023399;28;20060;-68
2023/08/22 01:58:10;;;;;;;6.35;3.05;;;23.40;55.90;;;;;;5021887;28;20058;-68
2023/08/22 02:00:38;;;;;;;5.20;3.13;;;23.40;55.90;;;;;;5022854;28;20057;-68
2023/08/22 02:03:06;;;;;;;3.97;3.00;;;23.40;55.90;;;;;;5017296;28;20057;-68
2023/08/22 02:05:33;;;;;;;7.88;3.53;;;23.40;55.90;;;;;;5006487;28;20061;-66
2023/08/22 02:08:01;;;;;;;6.68;3.33;;;23.40;55.90;;;;;;5006996;28;20891;-68
2023/08/22 02:10:28;;;;;;;6.32;3.40;;;23.30;55.90;;;;;;5007400;28;20421;-68
2023/08/22 02:12:57;;;;;;;5.40;3.20;;;23.30;56.00;;;;;;5003971;28;20060;-68
2023/08/22 02:15:24;;;;;;;7.85;3.17;;;23.30;56.00;;;;;;5006903;28;20046;-59
2023/08/22 02:17:52;;;;;;;7.32;3.63;;;23.30;56.00;;;;;;5006674;28;20056;-58
2023/08/22 02:20:19;;;;;;;6.40;3.58;;;23.30;56.10;;;;;;5005307;28;20069;-62
2023/08/22 02:22:46;;;;;;;5.78;3.50;;;23.30;56.10;;;;;;5004507;28;20057;-58
2023/08/22 02:25:14;;;;;;;6.30;3.33;;;23.30;56.20;;;;;;5007321;28;20508;-59
2023/08/22 02:27:41;;;;;;;4.68;3.13;;;23.20;56.10;;;;;;5003486;28;20402;-63
2023/08/22 02:30:11;;;;;;;6.82;2.78;;;23.20;56.10;;;;;;5005900;28;20061;-63
2023/08/22 02:32:39;;;;;;;5.28;2.97;;;23.20;56.10;;;;;;5005909;28;20064;-59
2023/08/22 02:35:07;;;;;;;4.45;3.13;;;23.20;56.10;;;;;;5006155;28;20050;-63
2023/08/22 02:37:34;;;;;;;8.05;3.08;;;23.20;56.10;;;;;;5004174;28;20045;-59
2023/08/22 02:40:05;;;;;;;6.22;3.67;;;23.20;56.10;;;;;;5001686;28;20060;-59
2023/08/22 02:42:32;;;;;;;6.50;3.00;;;23.10;56.00;;;;;;5003927;28;20053;-60
2023/08/22 02:45:00;;;;;;;6.72;3.35;;;23.10;56.10;;;;;;5006091;28;20049;-59
2023/08/22 02:47:29;;;;;;;3.30;2.85;;;23.00;56.00;;;;;;5005837;28;20050;-58
2023/08/22 02:49:56;;;;;;;6.15;3.83;;;23.00;56.00;;;;;;5004662;28;20053;-59
2023/08/22 02:52:24;;;;;;;6.00;3.60;;;23.00;56.10;;;;;;5006465;28;20070;-61
2023/08/22 02:54:51;;;;;;;5.90;3.92;;;23.00;56.10;;;;;;5005678;28;20057;-59
2023/08/22 02:57:19;;;;;;;6.10;3.65;;;23.00;56.20;;;;;;5003483;28;20053;-58
2023/08/22 02:59:46;;;;;;;5.13;3.50;;;22.90;56.20;;;;;;5004104;28;20057;-58
2023/08/22 03:02:13;;;;;;;8.77;3.80;;;22.90;56.30;;;;;;5005708;28;20053;-59
2023/08/22 03:04:42;;;;;;;6.40;3.30;;;22.90;56.30;;;;;;5004980;28;20054;-62
2023/08/22 03:07:09;;;;;;;8.65;3.50;;;22.90;56.40;;;;;;5004121;28;20401;-58
2023/08/22 03:09:40;;;;;;;5.38;3.40;;;22.80;56.30;;;;;;5005533;28;20516;-58
2023/08/22 03:12:07;;;;;;;7.82;3.85;;;22.80;56.40;;;;;;5004646;28;20064;-60
2023/08/22 03:14:35;;;;;;;5.45;3.38;;;22.90;56.40;;;;;;5005527;28;20062;-59
2023/08/22 03:17:02;;;;;;;6.53;3.20;;;22.80;56.40;;;;;;5004460;28;20813;-59
2023/08/22 03:19:29;;;;;;;7.65;3.80;;;22.80;56.50;;;;;;5005285;28;20072;-58
2023/08/22 03:21:58;;;;;;;6.45;3.97;;;22.80;56.50;;;;;;5004618;28;20065;-61
2023/08/22 03:24:25;;;;;;;11.90;4.38;;;22.70;56.50;;;;;;5004704;28;20053;-58
2023/08/22 03:26:52;;;;;;;9.77;4.53;;;22.70;56.50;;;;;;5004582;28;20064;-58
2023/08/22 03:29:19;;;;;;;6.07;4.00;;;22.70;56.50;;;;;;5003785;28;20058;-59
2023/08/22 03:31:46;;;;;;;7.80;4.18;;;22.70;56.50;;;;;;5004507;28;20065;-62
2023/08/22 03:34:14;;;;;;;7.97;3.72;;;22.60;56.60;;;;;;5004341;28;20054;-59
2023/08/22 03:36:41;;;;;;;9.93;4.63;;;22.60;56.60;;;;;;5004624;28;20046;-61
2023/08/22 03:39:10;;;;;;;6.32;3.70;;;22.60;56.70;;;;;;5004994;28;20050;-60
2023/08/22 03:41:37;;;;;;;4.38;3.47;;;22.60;56.80;;;;;;5004265;28;20473;-60
2023/08/22 03:44:05;;;;;;;7.78;3.80;;;22.50;56.80;;;;;;5005675;28;20409;-58
2023/08/22 03:46:32;;;;;;;6.57;3.80;;;22.50;56.80;;;;;;5003211;28;20068;-61
2023/08/22 03:48:59;;;;;;;6.70;3.50;;;22.50;56.90;;;;;;5003897;28;20054;-59
2023/08/22 03:51:26;;;;;;;7.03;3.58;;;22.50;56.90;;;;;;5002801;28;20049;-59
2023/08/22 03:53:54;;;;;;;8.27;3.70;;;22.50;56.90;;;;;;5003018;28;20054;-59
2023/08/22 03:56:23;;;;;;;5.90;3.63;;;22.50;57.00;;;;;;5002654;28;20058;-60
2023/08/22 03:58:51;;;;;;;8.00;3.90;;;22.50;57.20;;;;;;5004921;28;20497;-60
2023/08/22 04:01:18;;;;;;;6.57;3.78;;;22.40;57.40;;;;;;5005212;28;20065;-59
2023/08/22 04:03:45;;;;;;;29.98;15.57;;;22.40;56.90;;;;;;5003934;28;20065;-59
2023/08/22 04:06:12;;;;;;;17.00;10.45;;;22.40;56.90;;;;;;5003310;28;20050;-59
2023/08/22 04:08:43;;;;;;;11.77;6.55;;;22.40;56.80;;;;;;5005380;28;20449;-59
2023/08/22 04:11:10;;;;;;;7.93;4.40;;;22.30;56.80;;;;;;5003474;28;20429;-58
2023/08/22 04:13:39;;;;;;;8.80;4.50;;;22.30;56.90;;;;;;5002759;28;20068;-59
2023/08/22 04:16:06;;;;;;;9.30;4.07;;;22.30;57.40;;;;;;5003752;28;20401;-59
2023/08/22 04:18:33;;;;;;;5.90;3.88;;;22.30;57.00;;;;;;5006158;28;20054;-62
2023/08/22 04:21:00;;;;;;;7.90;4.00;;;22.30;57.00;;;;;;5004311;28;20501;-59
2023/08/22 04:23:28;;;;;;;5.85;3.75;;;22.30;57.10;;;;;;5004527;28;20053;-58
2023/08/22 04:25:55;;;;;;;8.15;4.10;;;22.30;57.10;;;;;;5003492;28;20068;-60
2023/08/22 04:28:22;;;;;;;7.47;3.72;;;22.20;57.10;;;;;;5003201;28;20049;-58
2023/08/22 04:30:50;;;;;;;6.30;3.45;;;22.20;57.20;;;;;;5003806;28;20402;-58
2023/08/22 04:33:18;;;;;;;8.60;4.13;;;22.20;57.30;;;;;;5003604;28;20053;-59
2023/08/22 04:35:45;;;;;;;6.43;3.58;;;22.20;57.30;;;;;;5005089;28;20049;-59
2023/08/22 04:38:12;;;;;;;7.22;3.90;;;22.20;57.30;;;;;;5008734;28;20049;-58
2023/08/22 04:40:39;;;;;;;6.18;3.88;;;22.20;57.30;;;;;;5023159;28;20504;-59
2023/08/22 04:43:06;;;;;;;163.32;71.70;;;22.10;57.30;;;;;;5022274;28;20049;-59
2023/08/22 04:45:34;;;;;;;37.45;17.88;;;22.10;57.30;;;;;;5024042;28;20079;-59
2023/08/22 04:48:02;;;;;;;16.92;8.30;;;22.10;57.30;;;;;;5022252;28;20060;-58
2023/08/22 04:50:30;;;;;;;8.95;4.60;;;22.10;57.40;;;;;;5023301;28;20057;-59
2023/08/22 04:52:58;;;;;;;7.55;4.20;;;22.10;57.50;;;;;;5023065;28;20060;-62
2023/08/22 04:55:25;;;;;;;6.45;3.58;;;22.00;57.50;;;;;;5022473;28;20053;-58
2023/08/22 04:57:52;;;;;;;5.00;3.22;;;22.10;57.70;;;;;;5021930;28;20497;-59
2023/08/22 05:00:19;;;;;;;6.22;3.92;;;22.00;57.70;;;;;;5023755;28;20064;-61
2023/08/22 05:02:47;;;;;;;8.23;4.15;;;22.00;57.80;;;;;;5023386;28;20360;-59
2023/08/22 05:05:15;;;;;;;7.10;3.72;;;22.00;57.90;;;;;;5022727;28;20053;-58
2023/08/22 05:07:42;;;;;;;6.18;3.50;;;22.00;58.00;;;;;;5023384;28;20519;-63
2023/08/22 05:10:10;;;;;;;5.63;3.42;;;22.10;58.00;;;;;;5022729;28;20059;-63
2023/08/22 05:12:37;;;;;;;6.07;3.63;;;22.10;58.00;;;;;;5020343;28;20481;-58
2023/08/22 05:15:05;;;;;;;7.43;3.58;;;22.10;58.10;;;;;;5023444;28;20057;-58
2023/08/22 05:17:32;;;;;;;10.57;4.20;;;22.10;58.20;;;;;;5023007;28;20050;-59
2023/08/22 05:20:00;;;;;;;5.97;3.50;;;22.10;58.20;;;;;;5023520;28;20053;-59
2023/08/22 05:22:28;;;;;;;5.95;3.58;;;22.10;58.20;;;;;;5022426;28;20057;-59
2023/08/22 05:24:55;;;;;;;9.05;3.83;;;22.10;58.20;;;;;;5020608;28;20053;-62
2023/08/22 05:27:29;;;;;;;6.65;3.78;;;22.10;58.10;;;;;;5021369;28;20057;-62
2023/08/22 05:29:57;;;;;;;;;;;22.10;58.20;;;;;;5023478;28;20500;-59
2023/08/22 05:32:26;;;;;;;7.85;3.70;;;22.20;58.10;;;;;;5022117;28;20300;-58
2023/08/22 05:34:54;;;;;;;7.57;3.72;;;22.10;58.00;;;;;;5022157;28;20413;-62
2023/08/22 05:37:24;;;;;;;9.45;4.00;;;22.10;58.10;;;;;;5020393;28;20069;-58
2023/08/22 05:39:53;;;;;;;5.40;3.72;;;22.20;58.20;;;;;;5025131;28;20057;-60
2023/08/22 05:42:21;;;;;;;6.32;3.72;;;22.20;58.40;;;;;;5026252;28;20064;-59
2023/08/22 05:44:49;;;;;;;8.70;4.35;;;22.10;58.40;;;;;;5026993;28;20053;-60
2023/08/22 05:47:16;;;;;;;8.02;4.18;;;22.20;58.60;;;;;;5025778;28;20060;-58
2023/08/22 05:49:44;;;;;;;7.47;3.47;;;22.20;58.60;;;;;;5025897;28;20052;-59
2023/08/22 05:52:11;;;;;;;5.78;3.60;;;22.20;58.70;;;;;;5025244;28;20056;-61
2023/08/22 05:54:38;;;;;;;8.75;3.80;;;22.20;58.80;;;;;;5026600;28;20421;-58
2023/08/22 05:57:07;;;;;;;6.88;3.42;;;22.20;59.30;;;;;;5025031;28;20064;-58
2023/08/22 05:59:34;;;;;;;4.85;3.10;;;22.20;58.80;;;;;;5024627;28;20052;-62
2023/08/22 06:02:01;;;;;;;5.80;3.55;;;22.20;58.80;;;;;;5026369;28;20076;-59
2023/08/22 06:04:29;;;;;;;4.70;3.10;;;22.30;58.80;;;;;;5025693;28;20057;-60
2023/08/22 06:06:56;;;;;;;6.35;3.45;;;22.30;58.90;;;;;;5026223;28;20501;-57
2023/08/22 06:09:23;;;;;;;6.43;3.60;;;22.30;58.90;;;;;;5027178;28;20064;-57
2023/08/22 06:11:50;;;;;;;7.15;3.20;;;22.30;58.90;;;;;;5023647;28;20057;-57
2023/08/22 06:14:19;;;;;;;5.40;3.17;;;22.30;58.90;;;;;;5025795;28;20056;-58
2023/08/22 06:16:46;;;;;;;7.18;3.88;;;22.30;58.90;;;;;;5026853;28;20072;-58
2023/08/22 06:19:13;;;;;;;6.43;4.00;;;22.30;58.90;;;;;;5026303;28;20054;-58
2023/08/22 06:21:41;;;;;;;7.15;3.83;;;22.30;59.00;;;;;;5025585;28;20386;-58
2023/08/22 06:24:08;;;;;;;6.65;3.55;;;22.30;59.00;;;;;;5025572;28;20049;-61
2023/08/22 06:26:36;;;;;;;7.68;4.05;;;22.30;59.20;;;;;;5024238;28;20462;-60
2023/08/22 06:29:03;;;;;;;5.88;3.20;;;22.40;59.40;;;;;;5025174;28;20485;-60
2023/08/22 06:31:32;;;;;;;8.80;3.83;;;22.40;59.50;;;;;;5025916;28;20053;-57
2023/08/22 06:33:59;;;;;;;6.03;4.00;;;22.40;59.60;;;;;;5025338;28;20053;-60
2023/08/22 06:36:26;;;;;;;5.72;3.53;;;22.50;59.70;;;;;;5025514;28;20068;-57
2023/08/22 06:38:54;;;;;;;8.75;3.95;;;22.50;59.80;;;;;;5025255;28;20495;-58
2023/08/22 06:41:21;;;;;;;6.70;3.78;;;22.60;59.80;;;;;;5024886;28;20527;-59
2023/08/22 06:43:48;;;;;;;8.68;3.70;;;22.60;59.80;;;;;;5025542;28;20061;-59
2023/08/22 06:46:16;;;;;;;6.28;3.88;;;22.60;59.80;;;;;;5026398;28;20080;-60
2023/08/22 06:48:45;;;;;;;9.00;4.03;;;22.70;59.80;;;;;;5024459;28;20049;-57
2023/08/22 06:51:12;;;;;;;6.35;3.75;;;22.70;59.70;;;;;;5025391;28;20057;-58
2023/08/22 06:53:39;;;;;;;8.60;4.00;;;22.70;59.60;;;;;;5025501;28;20508;-58
2023/08/22 06:56:07;;;;;;;8.10;4.30;;;22.80;59.70;;;;;;5025936;28;20068;-58
2023/08/22 06:58:34;;;;;;;6.82;4.20;;;22.80;59.60;;;;;;5023802;28;20049;-58
2023/08/22 07:01:01;;;;;;;10.82;3.95;;;22.80;59.70;;;;;;5025574;28;20045;-57
2023/08/22 07:03:28;;;;;;;9.30;4.05;;;22.80;59.60;;;;;;5023493;28;20064;-61
2023/08/22 07:05:57;;;;;;;9.75;4.28;;;22.90;59.70;;;;;;5024313;28;20120;-62
2023/08/22 07:08:24;;;;;;;8.45;4.05;;;22.90;59.70;;;;;;5024667;28;20052;-59
2023/08/22 07:10:51;;;;;;;10.18;5.20;;;22.90;59.80;;;;;;5025369;28;20057;-58
2023/08/22 07:13:19;;;;;;;8.50;4.78;;;23.00;59.80;;;;;;5024321;28;20060;-57
2023/08/22 07:15:46;;;;;;;11.43;6.00;;;23.00;59.70;;;;;;5024725;28;20087;-57
2023/08/22 07:18:13;;;;;;;11.20;5.63;;;23.00;59.30;;;;;;5026024;28;20053;-58
2023/08/22 07:20:40;;;;;;;10.30;5.22;;;23.00;59.40;;;;;;5024709;28;20053;-58
2023/08/22 07:23:09;;;;;;;9.50;4.80;;;23.10;59.50;;;;;;5024176;28;20061;-57
2023/08/22 07:25:36;;;;;;;15.00;6.68;;;23.10;59.60;;;;;;5024930;28;20493;-57
2023/08/22 07:28:04;;;;;;;12.93;6.82;;;23.20;59.40;;;;;;5024518;28;20056;-60
2023/08/22 07:30:33;;;;;;;10.57;5.75;;;23.20;59.00;;;;;;5025271;28;20425;-57
2023/08/22 07:33:00;;;;;;;16.08;5.90;;;23.20;59.00;;;;;;5025150;28;20049;-57
2023/08/22 07:35:29;;;;;;;9.57;5.28;;;23.30;59.10;;;;;;5026407;28;20064;-61
2023/08/22 07:37:57;;;;;;;24.08;7.68;;;23.30;59.20;;;;;;5025358;28;20493;-58
2023/08/22 07:40:25;;;;;;;17.75;7.60;;;23.40;58.70;;;;;;5024308;28;20061;-58
2023/08/22 07:42:52;;;;;;;25.52;7.93;;;23.40;58.40;;;;;;5024168;28;20252;-59
2023/08/22 07:45:20;;;;;;;11.27;5.78;;;23.40;57.90;;;;;;5024043;28;20531;-59
2023/08/22 07:47:47;;;;;;;9.52;5.03;;;23.50;58.10;;;;;;5024728;28;20068;-57
2023/08/22 07:50:14;;;;;;;14.38;6.82;;;23.50;58.20;;;;;;5023378;28;20052;-57
2023/08/22 07:52:41;;;;;;;17.10;7.55;;;23.50;58.20;;;;;;5025613;28;20523;-59
2023/08/22 07:55:09;;;;;;;14.48;7.90;;;23.60;58.10;;;;;;5023765;28;20053;-59
2023/08/22 07:57:38;;;;;;;16.55;8.60;;;23.60;58.00;;;;;;5023584;28;20049;-59
2023/08/22 08:00:07;;;;;;;18.23;7.88;;;23.60;57.80;;;;;;5024289;28;20501;-61
2023/08/22 08:02:35;;;;;;;11.27;5.90;;;23.70;57.90;;;;;;5006712;28;20058;-58
2023/08/22 08:05:03;;;;;;;15.32;7.57;;;23.70;57.90;;;;;;5023040;28;20056;-57
2023/08/22 08:07:30;;;;;;;18.42;8.10;;;23.80;58.00;;;;;;5024784;28;20065;-60
2023/08/22 08:09:57;;;;;;;16.92;7.47;;;23.80;57.80;;;;;;5023666;28;20056;-58
2023/08/22 08:12:24;;;;;;;18.55;7.97;;;23.90;57.80;;;;;;5023280;28;20057;-59
2023/08/22 08:14:53;;;;;;;13.10;7.13;;;23.90;57.60;;;;;;5023383;28;20061;-58
2023/08/22 08:17:20;;;;;;;19.73;7.97;;;24.00;57.60;;;;;;5023755;28;20064;-59
2023/08/22 08:19:49;;;;;;;21.40;8.60;;;24.00;57.30;;;;;;5023182;28;20064;-59
2023/08/22 08:22:16;;;;;;;12.75;7.32;;;24.10;57.00;;;;;;5023321;28;20500;-60
2023/08/22 08:24:43;;;;;;;13.05;6.03;;;24.10;57.10;;;;;;5024450;28;20056;-58
2023/08/22 08:27:10;;;;;;;17.00;7.93;;;24.10;57.00;;;;;;5022857;28;20124;-59
2023/08/22 08:29:38;;;;;;;13.75;7.50;;;24.20;56.80;;;;;;5021912;28;20057;-62
2023/08/22 08:32:06;;;;;;;21.75;7.88;;;24.20;56.20;;;;;;5023298;28;20057;-58
2023/08/22 08:34:34;;;;;;;10.18;5.43;;;24.20;56.40;;;;;;5023781;28;20076;-54
2023/08/22 08:37:01;;;;;;;10.93;6.13;;;24.30;56.70;;;;;;5023803;28;20061;-58
2023/08/22 08:39:28;;;;;;;10.90;5.50;;;24.40;56.60;;;;;;5022439;28;20061;-61
2023/08/22 08:42:04;;;;;;;13.43;6.30;;;24.40;56.70;;;;;;5022478;28;20057;-61
2023/08/22 08:44:34;;;;;;;17.05;6.88;;;24.50;56.80;;;;;;5024896;28;20060;-57
2023/08/22 08:47:02;;;;;;;16.33;6.20;;;24.50;56.10;;;;;;5023352;28;20050;-61
2023/08/22 08:49:33;;;;;;;18.67;6.95;;;24.60;55.90;;;;;;5023710;28;20041;-57
2023/08/22 08:52:02;;;;;;;15.45;5.50;;;24.60;55.80;;;;;;5022756;28;20060;-58
2023/08/22 08:54:30;;;;;;;17.13;6.95;;;24.70;56.20;;;;;;5023196;28;20057;-59
2023/08/22 08:56:57;;;;;;;17.38;7.18;;;24.80;56.20;;;;;;5021095;28;20060;-59
2023/08/22 08:59:25;;;;;;;12.98;6.03;;;24.80;55.50;;;;;;5023658;28;20049;-59
2023/08/22 09:01:52;;;;;;;16.10;6.47;;;24.90;55.40;;;;;;5022910;28;20057;-58
2023/08/22 09:04:20;;;;;;;12.73;5.85;;;25.00;54.90;;;;;;5023147;28;20519;-65
2023/08/22 09:06:49;;;;;;;13.98;6.70;;;25.00;54.60;;;;;;5023223;28;20065;-60
2023/08/22 09:09:17;;;;;;;12.52;7.00;;;25.10;54.10;;;;;;5023487;28;20049;-59
2023/08/22 09:11:46;;;;;;;14.98;6.88;;;25.10;54.20;;;;;;5021536;28;20063;-58
2023/08/22 09:14:13;;;;;;;18.38;7.38;;;25.20;54.60;;;;;;5024123;28;20119;-60
2023/08/22 09:16:41;;;;;;;11.38;5.32;;;25.20;54.60;;;;;;5026545;28;20060;-62
2023/08/22 09:19:08;;;;;;;15.45;6.47;;;25.30;55.30;;;;;;5027927;28;20455;-63
2023/08/22 09:21:36;;;;;;;11.32;4.75;;;25.30;55.20;;;;;;5025989;28;20053;-67
2023/08/22 09:24:09;;;;;;;18.02;6.45;;;25.40;55.50;;;;;;5026566;28;20056;-64
2023/08/22 09:26:37;;;;;;;20.27;6.57;;;25.50;55.50;;;;;;5025553;28;20080;-62
2023/08/22 09:29:06;;;;;;;13.90;5.35;;;25.60;55.50;;;;;;5025848;28;20053;-63
2023/08/22 09:31:35;;;;;;;15.80;6.03;;;25.60;55.30;;;;;;5024471;28;20057;-61
2023/08/22 09:34:12;;;;;;;13.80;5.78;;;25.70;54.40;;;;;;5027015;28;20485;-65
2023/08/22 09:36:45;;;;;;;14.75;6.05;;;25.70;54.00;;;;;;5026376;28;20049;-67
2023/08/22 09:39:16;;;;;;;12.15;5.38;;;25.80;53.80;;;;;;5025897;28;20078;-62
2023/08/22 09:41:43;;;;;;;11.80;5.40;;;25.80;53.80;;;;;;5025489;28;20054;-67
2023/08/22 09:44:12;;;;;;;14.52;5.82;;;25.80;53.50;;;;;;5026611;28;20685;-66
2023/08/22 09:46:41;;;;;;;11.35;5.90;;;25.80;53.50;;;;;;5025987;28;20049;-66
2023/08/22 09:49:12;;;;;;;10.77;5.10;;;25.80;53.10;;;;;;5024699;28;20405;-64
2023/08/22 09:51:41;;;;;;;14.27;4.97;;;25.80;52.80;;;;;;5025537;28;20053;-66
2023/08/22 09:54:08;;;;;;;14.48;5.22;;;25.90;52.50;;;;;;5024923;28;20489;-64
2023/08/22 09:56:38;;;;;;;14.05;4.43;;;25.90;52.10;;;;;;5022638;28;20674;-64
2023/08/22 09:59:06;;;;;;;10.25;4.10;;;26.00;52.40;;;;;;5025736;28;20144;-66
2023/08/22 10:01:35;;;;;;;14.63;3.67;;;26.00;52.70;;;;;;5026011;28;20068;-64
2023/08/22 10:04:04;;;;;;;7.47;3.30;;;26.00;51.90;;;;;;5025808;28;21026;-63
2023/08/22 10:06:34;;;;;;;11.25;3.58;;;26.00;52.20;;;;;;5025473;28;20057;-64
2023/08/22 10:09:07;;;;;;;4.30;2.42;;;26.10;51.40;;;;;;5025119;28;20068;-65
2023/08/22 10:11:41;;;;;;;7.20;2.67;;;26.10;50.60;;;;;;5023976;28;20053;-65
2023/08/22 10:14:11;;;;;;;6.40;3.28;;;26.20;51.00;;;;;;5023371;28;20064;-66
2023/08/22 10:16:39;;;;;;;9.40;2.97;;;26.20;50.70;;;;;;5026227;28;20052;-65
2023/08/22 10:19:09;;;;;;;7.55;3.00;;;26.30;50.40;;;;;;5025353;28;20066;-66
2023/08/22 10:21:44;;;;;;;13.52;3.47;;;26.30;50.60;;;;;;5025569;28;20045;-64
2023/08/22 10:24:22;;;;;;;9.52;3.67;;;26.40;50.10;;;;;;5024144;28;20508;-65
2023/08/22 10:27:02;;;;;;;8.02;2.90;;;26.40;48.70;;;;;;5025032;28;20484;-60
2023/08/22 10:29:33;;;;;;;6.97;3.03;;;26.40;48.70;;;;;;5026343;28;20496;-59
2023/08/22 10:32:23;;;;;;;12.45;4.25;;;26.50;49.60;;;;;;5026034;28;20068;-58
2023/08/22 10:35:06;;;;;;;9.45;3.45;;;26.50;49.20;;;;;;5024395;28;20060;-62
2023/08/22 10:37:33;;;;;;;12.90;3.78;;;26.60;49.10;;;;;;5026091;28;20052;-61
2023/08/22 10:40:04;;;;;;;10.52;4.28;;;26.60;49.20;;;;;;5026141;28;20045;-58
2023/08/22 10:42:33;;;;;;;9.50;3.58;;;26.70;48.90;;;;;;5023966;28;20056;-57
2023/08/22 10:45:00;;;;;;;12.13;3.47;;;26.70;48.30;;;;;;5026752;28;20057;-57
2023/08/22 10:47:30;;;;;;;10.27;3.53;;;26.70;49.20;;;;;;5024302;28;20053;-59
2023/08/22 10:49:59;;;;;;;9.35;4.20;;;26.80;49.80;;;;;;5024927;28;20052;-68
2023/08/22 10:52:36;;;;;;;8.43;3.75;;;26.80;47.90;;;;;;5021217;28;20053;-60
2023/08/22 10:55:08;;;;;;;13.77;4.93;;;26.80;47.70;;;;;;5024553;28;20046;-62
2023/08/22 10:57:39;;;;;;;10.15;4.22;;;26.90;47.90;;;;;;5024493;28;20584;-59
2023/08/22 11:00:12;;;;;;;10.50;4.18;;;26.90;48.70;;;;;;5024187;28;20046;-63
2023/08/22 11:02:41;;;;;;;10.95;4.07;;;27.00;48.90;;;;;;5024643;28;20436;-60
2023/08/22 11:05:11;;;;;;;14.60;5.00;;;27.00;49.00;;;;;;5025132;28;20056;-59
2023/08/22 11:07:40;;;;;;;11.70;4.35;;;27.10;48.90;;;;;;5024993;28;20052;-60
2023/08/22 11:10:09;;;;;;;7.95;3.50;;;27.10;47.50;;;;;;5024296;28;20049;-60
2023/08/22 11:12:38;;;;;;;8.77;4.53;;;27.10;48.30;;;;;;5023566;28;20076;-58
2023/08/22 11:15:06;;;;;;;11.30;4.25;;;27.20;47.80;;;;;;5024075;28;20057;-60
2023/08/22 11:17:37;;;;;;;10.23;4.90;;;27.20;48.00;;;;;;5025987;28;20049;-62
2023/08/22 11:20:06;;;;;;;8.93;5.28;;;27.20;47.80;;;;;;5024479;28;20394;-59
2023/08/22 11:22:34;;;;;;;14.35;6.22;;;27.30;48.20;;;;;;5023646;28;20071;-60
2023/08/22 11:25:01;;;;;;;12.13;5.47;;;27.30;47.40;;;;;;5023614;28;20072;-59
2023/08/22 11:27:28;;;;;;;18.13;7.88;;;27.30;47.90;;;;;;5024069;28;20053;-59
2023/08/22 11:29:57;;;;;;;13.00;7.00;;;27.30;47.00;;;;;;5023916;28;20053;-59
2023/08/22 11:32:26;;;;;;;13.23;5.93;;;27.30;47.10;;;;;;5024193;28;20501;-59
2023/08/22 11:34:55;;;;;;;15.00;6.78;;;27.40;46.90;;;;;;5024202;28;20072;-60
2023/08/22 11:37:23;;;;;;;16.20;7.40;;;27.40;47.00;;;;;;5022409;28;20417;-66
2023/08/22 11:39:51;;;;;;;10.73;6.10;;;27.40;47.20;;;;;;5024370;28;20516;-63
2023/08/22 11:42:19;;;;;;;21.42;8.25;;;27.40;47.70;;;;;;5022041;28;20065;-60
2023/08/22 11:44:54;;;;;;;22.20;8.25;;;27.40;47.50;;;;;;5024170;28;20049;-62
2023/08/22 11:47:22;;;;;;;16.38;7.35;;;27.50;47.40;;;;;;5023149;28;20401;-63
2023/08/22 11:49:50;;;;;;;20.00;7.82;;;27.50;47.90;;;;;;5025387;28;20058;-65
2023/08/22 11:52:17;;;;;;;10.63;5.15;;;27.60;48.00;;;;;;5023781;28;20053;-66
2023/08/22 11:54:45;;;;;;;11.88;6.38;;;27.60;48.20;;;;;;5024300;28;20949;-65
2023/08/22 11:57:13;;;;;;;23.48;6.60;;;27.70;47.70;;;;;;5022483;28;20057;-64
2023/08/22 11:59:42;;;;;;;20.05;9.25;;;27.80;47.40;;;;;;5023724;28;20542;-65
2023/08/22 12:02:11;;;;;;;11.23;6.63;;;27.80;46.10;;;;;;5023709;28;20437;-62
2023/08/22 12:04:43;;;;;;;13.27;8.00;;;27.90;46.30;;;;;;5021802;28;20060;-63
2023/08/22 12:07:10;;;;;;;15.20;7.25;;;27.80;45.30;;;;;;5021509;28;20053;-64
2023/08/22 12:09:38;;;;;;;12.68;6.38;;;27.80;45.70;;;;;;5023297;28;21482;-66
2023/08/22 12:12:14;;;;;;;13.18;6.88;;;27.90;46.20;;;;;;5022206;28;20056;-63
2023/08/22 12:14:41;;;;;;;9.77;4.65;;;27.90;46.10;;;;;;5025396;28;20057;-67
2023/08/22 12:17:08;;;;;;;11.23;6.10;;;27.90;46.70;;;;;;5022447;28;20053;-64
2023/08/22 12:19:35;;;;;;;11.93;6.10;;;28.00;46.40;;;;;;5023773;28;20071;-63
2023/08/22 12:22:04;;;;;;;14.73;7.10;;;28.00;46.40;;;;;;5022959;28;20423;-63
2023/08/22 12:24:31;;;;;;;15.77;6.95;;;27.90;46.40;;;;;;5022776;28;20413;-65
2023/08/22 12:26:58;;;;;;;17.48;5.82;;;27.90;45.20;;;;;;5022997;28;20064;-67
2023/08/22 12:29:25;;;;;;;10.27;5.05;;;27.90;45.50;;;;;;5022788;28;20057;-64
2023/08/22 12:31:53;;;;;;;17.80;6.15;;;27.90;46.20;;;;;;5023685;28;20056;-67
2023/08/22 12:34:20;;;;;;;9.82;4.03;;;27.80;46.10;;;;;;5025269;28;20087;-65
2023/08/22 12:36:47;;;;;;;19.15;6.40;;;27.80;46.50;;;;;;5022839;28;20052;-65
2023/08/22 12:39:16;;;;;;;13.52;6.00;;;27.80;46.70;;;;;;5022745;28;20061;-63
2023/08/22 12:41:43;;;;;;;18.52;6.53;;;27.70;45.70;;;;;;5021797;28;20049;-64
2023/08/22 12:44:10;;;;;;;16.55;6.45;;;27.70;45.80;;;;;;5022659;28;20073;-64
2023/08/22 12:46:37;;;;;;;12.80;5.13;;;27.80;46.10;;;;;;5022152;28;20052;-64
2023/08/22 12:49:05;;;;;;;14.43;4.97;;;27.70;46.20;;;;;;5022672;28;20049;-65